createdAt,value
2019-05-07T02:22:02.733Z,0.1
2019-05-07T02:24:03.166Z,0.2
2019-05-07T02:25:03.063Z,0.3
2019-05-07T02:27:02.960Z,0.4
2019-05-07T02:28:02.139Z,0.5
2019-05-07T02:30:04.042Z,0.6
2019-05-07T02:31:03.939Z,0.7
2019-05-07T02:32:04.585Z,0.8
2019-05-07T02:33:03.675Z,0.9
2019-05-07T02:34:02.700Z,1.1
2019-05-07T02:35:03.944Z,1.2
2019-05-07T02:36:02.976Z,1.4
2019-05-07T02:37:03.977Z,1.5
2019-05-07T02:38:03.080Z,1.7
2019-05-07T02:39:03.605Z,1.9
2019-05-07T02:40:04.158Z,2.2
2019-05-07T02:41:02.848Z,2.5
2019-05-07T02:42:03.647Z,2.8
2019-05-07T02:43:02.844Z,3.2
2019-05-07T02:44:04.063Z,3.7
2019-05-07T02:45:03.960Z,4.2
2019-05-07T02:46:16.896Z,4.9
2019-05-07T02:47:03.903Z,5.6
2019-05-07T02:49:03.126Z,6.6
2019-05-07T02:50:02.994Z,7.7
2019-05-07T02:51:03.853Z,9.1
2019-05-07T02:52:03.770Z,10.5
2019-05-07T02:53:04.025Z,12.3
2019-05-07T02:54:03.542Z,14.2
2019-05-07T02:55:03.834Z,16.5
2019-05-07T02:56:03.539Z,19.1
2019-05-07T02:57:03.062Z,22.1
2019-05-07T02:58:03.481Z,25.6
2019-05-07T02:59:03.990Z,29.6
2019-05-07T03:00:04.395Z,34.1
2019-05-07T03:01:04.293Z,39.3
2019-05-07T03:02:03.535Z,45.3
2019-05-07T03:03:03.763Z,52.0
2019-05-07T03:04:03.543Z,59.6
2019-05-07T03:05:05.096Z,68.3
2019-05-07T03:06:02.857Z,78.1
2019-05-07T03:07:03.806Z,89.2
2019-05-07T03:08:03.253Z,101.8
2019-05-07T03:09:03.172Z,116.0
2019-05-07T03:10:03.430Z,131.9
2019-05-07T03:11:03.257Z,149.8
2019-05-07T03:12:03.921Z,169.8
2019-05-07T03:13:02.970Z,192.2
2019-05-07T03:14:03.137Z,217.2
2019-05-07T03:15:04.299Z,245.1
2019-05-07T03:16:03.720Z,276.0
2019-05-07T03:17:02.966Z,310.1
2019-05-07T03:18:03.317Z,347.9
2019-05-07T03:19:03.746Z,389.4
2019-05-07T03:20:03.084Z,435.1
2019-05-07T03:21:03.371Z,485.5
2019-05-07T03:22:03.857Z,540.6
2019-05-07T03:24:03.393Z,607.9
2019-05-07T03:25:03.233Z,680.9
2019-05-07T03:26:03.967Z,759.6
2019-05-07T03:27:03.154Z,844.3
2019-05-07T03:28:04.130Z,935.1
2019-05-07T03:29:03.791Z,1032.0
2019-05-07T03:30:04.188Z,1135.1
2019-05-07T03:31:05.669Z,1244.7
2019-05-07T03:32:05.834Z,1361.3
2019-05-07T03:33:06.251Z,1484.7
2019-05-07T03:34:06.244Z,1614.9
2019-05-07T03:35:06.491Z,1752.0
2019-05-07T03:36:06.229Z,1895.9
2019-05-07T03:37:05.563Z,2046.3
2019-05-07T03:38:03.406Z,2203.4
2019-05-07T03:39:03.366Z,2359.9
2019-05-07T03:40:03.755Z,2523.1
2019-05-07T03:41:03.640Z,2692.9
2019-05-07T03:42:03.344Z,2869.3
2019-05-07T03:43:02.764Z,3052.5
2019-05-07T03:44:06.276Z,3242.4
2019-05-07T03:45:03.589Z,3438.9
2019-05-07T03:46:03.524Z,3641.7
2019-05-07T03:47:03.040Z,3850.5
2019-05-07T03:48:03.661Z,4065.5
2019-05-07T03:49:03.822Z,4286.7
2019-05-07T03:50:03.196Z,4513.9
2019-05-07T03:51:03.593Z,4747.7
2019-05-07T03:52:04.181Z,4989.1
2019-05-07T03:53:02.714Z,5240.4
2019-05-07T03:54:06.113Z,5502.1
2019-05-07T03:55:03.646Z,5769.5
2019-05-07T03:56:04.003Z,6087.6
2019-05-07T03:57:09.530Z,6403.1
2019-05-07T03:58:03.095Z,6697.6
2019-05-07T03:59:03.562Z,7011.5
2019-05-07T04:00:04.158Z,7359.5
2019-05-07T04:01:04.201Z,7756.5
2019-05-07T04:02:03.270Z,8232.5
2019-05-07T04:04:03.565Z,8865.3
2019-05-07T04:05:04.177Z,9475.4
2019-05-07T04:06:03.732Z,10002.8
2019-05-07T04:07:03.297Z,10460.2
2019-05-07T04:08:03.273Z,10858.6
2019-05-07T04:09:03.441Z,11215.1
2019-05-07T04:10:04.219Z,11551.5
2019-05-07T04:11:03.500Z,11918.8
2019-05-07T04:12:03.781Z,12210.5
2019-05-07T04:13:04.183Z,12453.7
2019-05-07T04:14:02.572Z,12710.0
2019-05-07T04:15:03.329Z,12959.9
2019-05-07T04:16:03.957Z,13191.9
2019-05-07T04:17:14.095Z,13388.9
2019-05-07T04:18:03.558Z,13498.4
2019-05-07T04:19:03.814Z,13436.5
2019-05-07T04:20:04.273Z,13392.4
2019-05-07T04:21:03.567Z,13433.7
2019-05-07T04:22:04.023Z,13552.5
2019-05-07T04:23:03.968Z,13741.8
2019-05-07T04:24:03.479Z,14079.2
2019-05-07T04:25:06.080Z,14494.4
2019-05-07T04:26:04.208Z,14855.5
2019-05-07T04:27:03.580Z,15236.9
2019-05-07T04:28:03.662Z,15678.5
2019-05-07T04:29:04.740Z,16195.2
2019-05-07T04:30:03.588Z,16712.8
2019-05-07T04:31:02.807Z,17225.3
2019-05-07T04:32:03.159Z,17758.1
2019-05-07T04:33:03.402Z,18343.2
2019-05-07T04:34:03.617Z,18958.4
2019-05-07T04:35:03.814Z,19564.7
2019-05-07T04:36:02.801Z,20154.9
2019-05-07T04:37:03.261Z,20722.4
2019-05-07T04:38:03.197Z,21265.9
2019-05-07T04:39:02.927Z,21699.7
2019-05-07T04:40:03.098Z,22068.2
2019-05-07T04:41:03.731Z,22453.1
2019-05-07T04:42:03.482Z,22845.5
2019-05-07T04:43:02.624Z,23231.5
2019-05-07T04:44:03.490Z,23552.8
2019-05-07T04:45:04.130Z,23863.6
2019-05-07T04:46:03.091Z,24166.0
2019-05-07T04:47:04.140Z,24438.9
2019-05-07T04:48:03.018Z,24678.4
2019-05-07T04:49:03.582Z,24915.3
2019-05-07T04:50:03.705Z,25190.1
2019-05-07T04:51:03.487Z,25497.6
2019-05-07T04:52:03.868Z,25810.4
2019-05-07T04:53:02.753Z,26154.5
2019-05-07T04:54:03.505Z,26565.7
2019-05-07T04:55:03.963Z,27198.9
2019-05-07T04:56:03.218Z,28081.2
2019-05-07T04:57:03.600Z,28889.9
2019-05-07T04:58:02.942Z,29445.7
2019-05-07T04:59:03.556Z,29940.1
2019-05-07T05:01:03.197Z,30647.1
2019-05-07T05:02:03.839Z,31914.4
2019-05-07T05:03:03.317Z,34008.6
2019-05-07T05:04:17.438Z,36605.5
2019-05-07T05:05:03.234Z,39172.2
2019-05-07T05:06:02.601Z,41697.5
2019-05-07T05:07:02.521Z,44185.3
2019-05-07T05:08:03.701Z,46664.6
2019-05-07T05:09:02.939Z,49086.7
2019-05-07T05:10:02.743Z,50401.5
2019-05-07T05:11:03.236Z,51437.8
2019-05-07T05:12:02.627Z,52199.5
2019-05-07T05:13:03.128Z,53517.5
2019-05-07T05:14:07.828Z,54282.9
2019-05-07T05:15:02.120Z,55047.4
2019-05-07T05:16:01.997Z,56842.8
2019-05-07T05:17:02.040Z,57927.3
2019-05-07T05:18:02.607Z,58041.3
2019-05-07T05:19:06.103Z,57562.9
2019-05-07T05:20:03.509Z,56995.8
2019-05-07T05:21:02.743Z,55757.1
2019-05-07T05:22:01.968Z,54163.5
2019-05-07T05:23:02.462Z,53200.7
2019-05-07T05:24:01.802Z,52725.1
2019-05-07T05:25:02.493Z,53239.2
2019-05-07T05:26:01.920Z,53794.6
2019-05-07T05:27:02.546Z,54387.9
2019-05-07T05:28:02.006Z,54444.8
2019-05-07T05:29:02.382Z,55328.7
2019-05-07T05:30:03.052Z,56261.8
2019-05-07T05:31:03.217Z,55946.3
2019-05-07T05:32:02.310Z,55783.5
2019-05-07T05:33:02.247Z,55762.8
2019-05-07T05:34:06.122Z,55825.9
2019-05-07T05:35:03.195Z,56007.3
2019-05-07T05:36:03.017Z,56893.4
2019-05-07T05:37:02.412Z,58192.5
2019-05-07T05:38:03.008Z,58900.3
2019-05-07T05:39:06.108Z,59211.2
2019-05-07T05:40:06.048Z,59664.5
2019-05-07T05:41:02.697Z,60188.3
2019-05-07T05:42:02.481Z,60686.8
2019-05-07T05:43:01.911Z,61221.7
2019-05-07T05:45:02.038Z,61717.4
2019-05-07T05:46:02.688Z,62208.2
2019-05-07T05:47:02.365Z,62684.9
2019-05-07T05:48:05.342Z,63141.0
2019-05-07T05:49:02.576Z,63577.4
2019-05-07T05:50:01.916Z,63992.7
2019-05-07T05:51:02.633Z,64076.4
2019-05-07T05:52:02.000Z,63316.8
2019-05-07T05:53:02.697Z,62273.9
2019-05-07T05:54:02.000Z,61092.1
2019-05-07T05:55:02.510Z,59801.0
2019-05-07T05:56:02.366Z,58520.4
2019-05-07T05:57:02.590Z,57441.8
2019-05-07T05:59:02.812Z,56454.7
2019-05-07T06:00:02.316Z,55638.9
2019-05-07T06:06:01.945Z,55940.9
2019-05-07T06:07:08.673Z,57053.1
2019-05-07T06:08:03.670Z,58390.5
2019-05-07T06:09:01.894Z,59827.2
2019-05-07T06:10:02.491Z,61301.3
2019-05-07T06:11:02.249Z,62653.5
2019-05-07T06:12:02.726Z,63732.1
2019-05-07T06:14:02.211Z,64719.3
2019-05-07T06:15:01.748Z,65535.0
2019-05-07T06:30:04.395Z,65535.0
2019-05-07T06:45:02.888Z,65535.0
2019-05-07T07:00:02.668Z,65535.0
2019-05-07T07:15:02.696Z,65535.0
2019-05-07T07:30:02.208Z,65535.0
2019-05-07T07:45:02.977Z,65535.0
2019-05-07T08:00:02.533Z,65535.0
2019-05-07T08:15:14.330Z,65535.0
2019-05-07T08:30:02.915Z,65535.0
2019-05-07T08:45:02.869Z,65535.0
2019-05-07T09:00:03.984Z,65535.0
2019-05-07T09:15:02.143Z,65535.0
2019-05-07T09:30:02.624Z,65535.0
2019-05-07T09:45:01.870Z,65535.0
2019-05-07T10:00:02.195Z,65535.0
2019-05-07T10:15:03.023Z,65535.0
2019-05-07T10:30:02.295Z,65535.0
2019-05-07T10:45:03.052Z,65535.0
2019-05-07T11:00:03.145Z,65535.0
2019-05-07T11:15:02.143Z,65535.0
2019-05-07T11:30:02.668Z,65535.0
2019-05-07T11:45:02.152Z,65535.0
2019-05-07T12:00:02.734Z,65535.0
2019-05-07T12:15:02.411Z,65535.0
2019-05-07T12:30:01.862Z,65535.0
2019-05-07T12:45:02.274Z,65535.0
2019-05-07T13:00:02.056Z,65535.0
2019-05-07T13:15:02.890Z,65535.0
2019-05-07T13:30:02.516Z,65535.0
2019-05-07T13:45:02.758Z,65535.0
2019-05-07T14:00:02.325Z,65535.0
2019-05-07T14:15:02.123Z,65535.0
2019-05-07T14:30:02.638Z,65535.0
2019-05-07T14:45:01.098Z,65535.0
2019-05-07T15:00:03.151Z,65535.0
2019-05-07T15:15:02.150Z,65535.0
2019-05-07T15:30:02.253Z,65535.0
2019-05-07T15:45:02.239Z,65535.0
2019-05-07T16:00:02.125Z,65535.0
2019-05-07T16:15:03.125Z,65535.0
2019-05-07T16:26:02.381Z,64960.5
2019-05-07T16:27:02.596Z,64034.7
2019-05-07T16:28:02.074Z,62835.9
2019-05-07T16:29:04.133Z,61483.5
2019-05-07T16:30:01.103Z,60047.5
2019-05-07T16:31:02.533Z,58561.7
2019-05-07T16:32:06.105Z,56716.3
2019-05-07T16:33:02.070Z,54828.3
2019-05-07T16:34:02.520Z,53108.5
2019-05-07T16:35:02.621Z,51697.9
2019-05-07T16:36:02.097Z,50345.9
2019-05-07T16:37:03.365Z,48959.5
2019-05-07T16:38:01.100Z,47587.6
2019-05-07T16:39:03.201Z,46261.1
2019-05-07T16:40:01.560Z,44949.7
2019-05-07T16:41:01.098Z,44202.7
2019-05-07T16:42:01.827Z,43730.1
2019-05-07T16:44:02.838Z,43338.7
2019-05-07T16:45:02.848Z,42994.6
2019-05-07T16:46:02.411Z,42645.4
2019-05-07T16:47:02.779Z,42270.3
2019-05-07T16:48:03.116Z,42202.6
2019-05-07T16:49:02.242Z,42139.1
2019-05-07T16:50:03.836Z,41870.2
2019-05-07T16:51:02.315Z,41264.9
2019-05-07T16:52:01.791Z,40576.3
2019-05-07T16:53:02.809Z,39900.5
2019-05-07T16:54:03.200Z,39202.2
2019-05-07T16:55:02.951Z,38450.8
2019-05-07T16:56:02.849Z,37680.8
2019-05-07T16:57:03.075Z,36919.0
2019-05-07T16:58:01.844Z,36235.1
2019-05-07T16:59:01.704Z,35739.8
2019-05-07T17:00:02.825Z,35349.1
2019-05-07T17:01:01.104Z,35048.0
2019-05-07T17:02:02.649Z,34819.6
2019-05-07T17:03:02.153Z,34632.5
2019-05-07T17:04:02.717Z,34492.1
2019-05-07T17:05:02.961Z,34389.4
2019-05-07T17:06:01.785Z,34312.6
2019-05-07T17:07:02.431Z,34256.3
2019-05-07T17:08:02.396Z,34184.5
2019-05-07T17:09:02.574Z,34154.7
2019-05-07T17:10:02.593Z,34132.9
2019-05-07T17:11:02.968Z,34094.7
2019-05-07T17:12:01.101Z,34030.9
2019-05-07T17:13:02.864Z,34002.0
2019-05-07T17:14:02.252Z,33979.6
2019-05-07T17:15:02.875Z,33945.8
2019-05-07T17:16:03.285Z,33884.1
2019-05-07T17:17:02.498Z,33798.7
2019-05-07T17:18:02.722Z,33712.3
2019-05-07T17:20:02.680Z,33577.5
2019-05-07T17:21:02.021Z,33425.4
2019-05-07T17:22:02.802Z,33272.2
2019-05-07T17:23:02.928Z,33121.7
2019-05-07T17:24:02.496Z,32990.1
2019-05-07T17:25:03.056Z,32799.6
2019-05-07T17:26:01.085Z,32588.3
2019-05-07T17:27:02.301Z,32369.8
2019-05-07T17:28:02.852Z,32143.5
2019-05-07T17:29:02.588Z,31849.2
2019-05-07T17:30:02.894Z,31520.9
2019-05-07T17:31:03.028Z,31173.4
2019-05-07T17:32:01.625Z,30813.9
2019-05-07T17:33:01.872Z,30448.1
2019-05-07T17:34:02.217Z,30072.2
2019-05-07T17:35:02.543Z,29716.3
2019-05-07T17:36:02.406Z,29365.7
2019-05-07T17:37:01.933Z,29002.7
2019-05-07T17:38:07.101Z,28626.7
2019-05-07T17:39:02.671Z,28256.7
2019-05-07T17:40:03.045Z,27913.5
2019-05-07T17:41:10.677Z,27576.9
2019-05-07T17:42:02.456Z,27273.2
2019-05-07T17:43:02.981Z,27034.9
2019-05-07T17:44:02.635Z,26834.5
2019-05-07T17:45:02.847Z,26661.9
2019-05-07T17:46:02.774Z,26532.5
2019-05-07T17:47:01.908Z,26443.9
2019-05-07T17:48:02.919Z,26383.9
2019-05-07T17:49:02.411Z,26343.1
2019-05-07T17:50:02.118Z,26317.8
2019-05-07T17:51:02.095Z,26303.8
2019-05-07T17:52:02.817Z,26302.6
2019-05-07T17:53:01.090Z,26306.4
2019-05-07T17:54:01.235Z,26313.2
2019-05-07T17:55:02.140Z,26326.9
2019-05-07T17:56:02.078Z,26344.9
2019-05-07T17:57:01.956Z,26328.3
2019-05-07T17:58:01.973Z,26256.7
2019-05-07T17:59:02.800Z,26150.5
2019-05-07T18:00:02.191Z,26000.2
2019-05-07T18:01:01.759Z,25775.5
2019-05-07T18:02:02.235Z,25492.9
2019-05-07T18:03:02.564Z,25161.3
2019-05-07T18:04:02.915Z,24784.0
2019-05-07T18:05:02.799Z,24373.3
2019-05-07T18:06:02.160Z,23923.8
2019-05-07T18:07:02.949Z,23451.1
2019-05-07T18:08:02.045Z,22972.9
2019-05-07T18:09:02.875Z,22493.5
2019-05-07T18:10:02.340Z,21999.7
2019-05-07T18:11:02.233Z,21509.9
2019-05-07T18:12:01.091Z,21042.8
2019-05-07T18:13:01.099Z,20599.5
2019-05-07T18:14:02.537Z,20188.5
2019-05-07T18:15:02.249Z,19824.8
2019-05-07T18:16:02.875Z,19519.8
2019-05-07T18:17:02.088Z,19261.7
2019-05-07T18:18:02.996Z,19045.9
2019-05-07T18:19:02.081Z,18859.7
2019-05-07T18:20:02.462Z,18688.1
2019-05-07T18:21:02.197Z,18531.2
2019-05-07T18:22:02.597Z,18378.4
2019-05-07T18:23:02.606Z,18217.5
2019-05-07T18:24:12.889Z,18043.6
2019-05-07T18:25:01.758Z,17854.8
2019-05-07T18:26:01.105Z,17651.0
2019-05-07T18:27:01.907Z,17428.7
2019-05-07T18:28:01.785Z,17173.7
2019-05-07T18:29:02.421Z,16877.0
2019-05-07T18:30:02.744Z,16537.9
2019-05-07T18:31:01.987Z,16158.1
2019-05-07T18:32:01.094Z,15740.9
2019-05-07T18:33:02.406Z,15287.1
2019-05-07T18:34:02.698Z,14806.3
2019-05-07T18:35:02.305Z,14311.7
2019-05-07T18:36:02.786Z,13811.3
2019-05-07T18:37:02.081Z,13305.3
2019-05-07T18:38:02.575Z,12797.4
2019-05-07T18:40:02.481Z,12266.7
2019-05-07T18:41:02.573Z,11735.6
2019-05-07T18:42:02.745Z,11205.0
2019-05-07T18:43:02.869Z,10680.3
2019-05-07T18:44:09.781Z,10170.9
2019-05-07T18:45:02.083Z,9681.8
2019-05-07T18:46:02.246Z,9216.8
2019-05-07T18:47:02.292Z,8779.6
2019-05-07T18:48:02.399Z,8369.7
2019-05-07T18:49:03.377Z,7987.0
2019-05-07T18:50:02.821Z,7630.1
2019-05-07T18:51:02.649Z,7291.1
2019-05-07T18:52:02.840Z,6961.8
2019-05-07T18:53:02.814Z,6638.4
2019-05-07T18:54:02.395Z,6319.2
2019-05-07T18:55:02.672Z,6026.1
2019-05-07T18:56:01.690Z,5736.3
2019-05-07T18:57:02.284Z,5450.3
2019-05-07T18:58:02.748Z,5168.3
2019-05-07T18:59:02.096Z,4890.5
2019-05-07T19:00:04.623Z,4617.3
2019-05-07T19:01:02.631Z,4350.3
2019-05-07T19:02:02.266Z,4090.3
2019-05-07T19:03:03.098Z,3838.3
2019-05-07T19:04:02.044Z,3596.5
2019-05-07T19:05:02.722Z,3364.5
2019-05-07T19:06:02.763Z,3141.9
2019-05-07T19:07:02.505Z,2930.1
2019-05-07T19:08:07.649Z,2730.5
2019-05-07T19:09:01.093Z,2543.6
2019-05-07T19:10:02.617Z,2368.7
2019-05-07T19:11:01.091Z,2203.8
2019-05-07T19:12:01.125Z,2047.7
2019-05-07T19:13:01.091Z,1899.9
2019-05-07T19:14:02.988Z,1760.1
2019-05-07T19:15:02.865Z,1627.6
2019-05-07T19:16:02.848Z,1501.4
2019-05-07T19:17:03.123Z,1380.9
2019-05-07T19:18:02.627Z,1266.9
2019-05-07T19:19:01.110Z,1159.3
2019-05-07T19:20:03.338Z,1058.3
2019-05-07T19:21:01.099Z,963.8
2019-05-07T19:22:02.161Z,875.6
2019-05-07T19:23:02.643Z,793.3
2019-05-07T19:24:02.263Z,716.7
2019-05-07T19:25:02.948Z,645.9
2019-05-07T19:26:02.420Z,580.9
2019-05-07T19:27:02.149Z,521.3
2019-05-07T19:28:01.974Z,466.7
2019-05-07T19:29:02.541Z,416.9
2019-05-07T19:30:01.316Z,371.6
2019-05-07T19:31:01.099Z,330.7
2019-05-07T19:32:03.119Z,293.9
2019-05-07T19:34:03.020Z,259.9
2019-05-07T19:35:01.239Z,229.5
2019-05-07T19:36:01.096Z,202.2
2019-05-07T19:37:02.535Z,177.8
2019-05-07T19:38:02.807Z,155.9
2019-05-07T19:39:01.925Z,136.4
2019-05-07T19:40:02.004Z,119.0
2019-05-07T19:41:02.153Z,103.5
2019-05-07T19:42:02.527Z,89.7
2019-05-07T19:43:02.951Z,77.7
2019-05-07T19:44:01.997Z,67.1
2019-05-07T19:45:02.610Z,57.7
2019-05-07T19:46:02.830Z,49.5
2019-05-07T19:47:01.986Z,42.3
2019-05-07T19:48:02.847Z,36.0
2019-05-07T19:49:02.727Z,31.3
2019-05-07T19:50:02.077Z,27.3
2019-05-07T19:51:02.846Z,23.7
2019-05-07T19:52:01.594Z,20.7
2019-05-07T19:53:02.894Z,18.0
2019-05-07T19:54:06.098Z,15.7
2019-05-07T19:55:04.215Z,13.7
2019-05-07T19:56:01.995Z,11.9
2019-05-07T19:57:02.664Z,10.4
2019-05-07T19:58:01.101Z,9.1
2019-05-07T19:59:06.103Z,7.9
2019-05-07T20:00:01.328Z,6.9
2019-05-07T20:01:02.246Z,6.1
2019-05-07T20:02:02.429Z,5.3
2019-05-07T20:03:02.918Z,4.7
2019-05-07T20:04:06.109Z,4.1
2019-05-07T20:05:03.408Z,3.5
2019-05-07T20:06:02.386Z,3.1
2019-05-07T20:07:02.805Z,2.7
2019-05-07T20:08:04.115Z,2.3
2019-05-07T20:09:09.727Z,2.1
2019-05-07T20:10:02.640Z,1.8
2019-05-07T20:11:02.675Z,1.5
2019-05-07T20:12:02.715Z,1.3
2019-05-07T20:13:02.894Z,1.1
2019-05-07T20:14:01.986Z,0.9
2019-05-07T20:15:02.802Z,0.8
2019-05-07T20:16:02.833Z,0.7
2019-05-07T20:17:01.107Z,0.5
2019-05-07T20:19:01.105Z,0.4
2019-05-07T20:20:03.047Z,0.3
2019-05-07T20:22:02.065Z,0.2
2019-05-07T20:23:02.528Z,0.1
